ADDS TAF Data INFO
IDs: Format: Raw Decoded Include METARs

Data at: 2115 UTC 21 Nov 2017

KDMN 212053Z AUTO 28004KT 10SM CLR 24/M09 A3013 RMK AO2 SLP151 T02391089 57016

KDMN 211721Z 2118/2218 33011G19KT P6SM SCT250
  FM220000 06008G16KT P6SM BKN250
  FM221200 06006KT P6SM SCT250